Terminal Aerodrome Forecast
Issued by NWS Glasgow, MT

Home | Current Version | Previous Version | Text Only | Print | Product List | Glossary On
Versions: 1 2 3 4 5 6 7 8 9 10 11 12 13 14
000
FTUS45 KGGW 241100 RRA
TAFGGW
TAF
KGGW 241150Z 2412/2512 12005KT P6SM BKN050 OVC080
     FM241700 VRB05KT P6SM -RASN OVC040
     FM242000 34008KT 6SM -SN SCT004 OVC025
     FM250500 33012KT P6SM OVC015=

USA.gov is the U.S. government's official web portal to all federal, state and local government web resources and services.